createdAt,value
2018-08-23T00:01:28.504Z,6.22
2018-08-23T00:03:57.458Z,6.70
2018-08-23T00:06:24.634Z,6.28
2018-08-23T00:08:52.052Z,7.78
2018-08-23T00:11:22.782Z,8.48
2018-08-23T00:13:49.989Z,7.08
2018-08-23T00:16:21.667Z,8.80
2018-08-23T00:18:48.852Z,7.87
2018-08-23T00:21:21.459Z,8.53
2018-08-23T00:23:53.184Z,9.35
2018-08-23T00:26:20.374Z,7.70
2018-08-23T00:28:47.547Z,7.60
2018-08-23T00:31:14.768Z,5.70
2018-08-23T00:33:41.948Z,6.45
2018-08-23T00:36:09.131Z,6.78
2018-08-23T00:38:36.320Z,6.42
2018-08-23T00:41:03.487Z,6.65
2018-08-23T00:43:30.680Z,6.85
2018-08-23T00:45:59.840Z,6.33
2018-08-23T00:48:27.034Z,7.03
2018-08-23T00:50:55.755Z,6.45
2018-08-23T00:53:22.942Z,7.25
2018-08-23T00:55:56.692Z,6.87
2018-08-23T00:58:23.880Z,7.20
2018-08-23T01:00:55.389Z,6.83
2018-08-23T01:03:22.569Z,6.65
2018-08-23T01:05:49.842Z,7.05
2018-08-23T01:08:22.597Z,7.42
2018-08-23T01:10:49.785Z,6.33
2018-08-23T01:13:17.032Z,6.97
2018-08-23T01:15:44.261Z,5.90
2018-08-23T01:18:14.127Z,8.08
2018-08-23T01:20:42.173Z,7.65
2018-08-23T01:23:09.463Z,7.87
2018-08-23T01:25:39.994Z,7.33
2018-08-23T01:28:07.559Z,7.70
2018-08-23T01:30:35.027Z,7.20
2018-08-23T01:33:02.215Z,7.85
2018-08-23T01:35:29.386Z,7.47
2018-08-23T01:37:56.555Z,7.90
2018-08-23T01:40:23.733Z,7.42
2018-08-23T01:42:50.912Z,8.20
2018-08-23T01:45:18.096Z,7.83
2018-08-23T01:47:50.795Z,6.95
2018-08-23T01:50:17.980Z,8.00
2018-08-23T01:52:46.360Z,6.78
2018-08-23T01:55:14.398Z,7.03
2018-08-23T01:57:41.725Z,7.75
2018-08-23T02:00:09.771Z,8.15
2018-08-23T02:02:36.952Z,6.53
2018-08-23T02:05:04.352Z,8.03
2018-08-23T02:07:31.534Z,8.23
2018-08-23T02:09:58.838Z,7.35
2018-08-23T02:12:26.029Z,7.70
2018-08-23T02:14:57.732Z,6.33
2018-08-23T02:17:24.915Z,7.12
2018-08-23T02:19:52.139Z,7.10
2018-08-23T02:22:19.320Z,7.60
2018-08-23T02:24:46.507Z,7.40
2018-08-23T02:27:13.970Z,7.30
2018-08-23T02:29:42.517Z,7.53
2018-08-23T02:32:10.134Z,6.78
2018-08-23T02:34:39.315Z,7.28
2018-08-23T02:37:06.486Z,6.85
2018-08-23T02:39:33.663Z,6.67
2018-08-23T02:42:00.826Z,6.67
2018-08-23T02:44:28.015Z,7.22
2018-08-23T02:46:55.196Z,6.72
2018-08-23T02:49:22.404Z,7.25
2018-08-23T02:51:50.601Z,6.72
2018-08-23T02:54:17.779Z,7.37
2018-08-23T02:56:49.684Z,6.90
2018-08-23T02:59:16.868Z,6.53
2018-08-23T03:01:48.235Z,8.30
2018-08-23T03:04:18.553Z,7.05
2018-08-23T03:06:50.228Z,7.80
2018-08-23T03:09:17.972Z,6.70
2018-08-23T03:11:47.375Z,7.85
2018-08-23T03:14:14.967Z,7.45
2018-08-23T03:16:48.538Z,7.50
2018-08-23T03:19:15.898Z,7.33
2018-08-23T03:21:43.104Z,7.15
2018-08-23T03:24:10.383Z,7.62
2018-08-23T03:26:37.860Z,7.83
2018-08-23T03:29:05.046Z,6.10
2018-08-23T03:31:32.230Z,7.97
2018-08-23T03:33:59.400Z,7.35
2018-08-23T03:36:26.589Z,7.97
2018-08-23T03:38:53.780Z,8.35
2018-08-23T03:41:20.959Z,6.83
2018-08-23T03:43:48.131Z,7.67
2018-08-23T03:46:15.317Z,8.35
2018-08-23T03:48:42.990Z,7.92
2018-08-23T03:51:10.221Z,8.40
2018-08-23T03:53:48.226Z,8.08
2018-08-23T03:56:16.018Z,8.63
2018-08-23T03:58:43.472Z,7.60
2018-08-23T04:01:12.559Z,7.30
2018-08-23T04:03:39.858Z,7.95
2018-08-23T04:06:18.192Z,7.40
2018-08-23T04:08:45.707Z,6.87
2018-08-23T04:11:12.902Z,7.22
2018-08-23T04:13:40.278Z,7.22
2018-08-23T04:16:07.462Z,6.72
2018-08-23T04:18:34.670Z,7.35
2018-08-23T04:21:01.857Z,8.45
2018-08-23T04:23:29.062Z,7.42
2018-08-23T04:25:56.287Z,7.65
2018-08-23T04:28:23.523Z,6.78
2018-08-23T04:30:50.688Z,7.85
2018-08-23T04:33:17.854Z,7.83
2018-08-23T04:35:45.044Z,8.73
2018-08-23T04:38:12.216Z,9.78
2018-08-23T04:40:40.312Z,9.05
2018-08-23T04:43:07.524Z,9.40
2018-08-23T04:45:34.704Z,8.75
2018-08-23T04:48:09.327Z,9.35
2018-08-23T04:50:37.490Z,8.35
2018-08-23T04:53:04.752Z,9.20
2018-08-23T04:55:31.957Z,8.33
2018-08-23T04:57:59.873Z,9.73
2018-08-23T05:00:27.754Z,10.05
2018-08-23T05:02:54.942Z,9.53
2018-08-23T05:05:22.147Z,11.08
2018-08-23T05:07:49.331Z,10.63
2018-08-23T05:10:16.514Z,11.30
2018-08-23T05:12:43.710Z,9.43
2018-08-23T05:15:10.902Z,8.95
2018-08-23T05:17:38.143Z,9.30
2018-08-23T05:20:05.347Z,10.72
2018-08-23T05:22:32.592Z,9.93
2018-08-23T05:25:11.146Z,9.63
2018-08-23T05:27:44.726Z,11.38
2018-08-23T05:30:11.940Z,13.70
2018-08-23T05:32:39.122Z,12.90
2018-08-23T05:35:06.746Z,10.98
2018-08-23T05:37:33.976Z,10.55
2018-08-23T05:40:01.153Z,9.83
2018-08-23T05:42:34.714Z,10.88
2018-08-23T05:45:01.901Z,11.65
2018-08-23T05:47:29.092Z,11.70
2018-08-23T05:49:56.290Z,8.53
2018-08-23T05:52:23.477Z,8.60
2018-08-23T05:54:50.659Z,10.32
2018-08-23T05:57:17.851Z,9.08
2018-08-23T05:59:45.022Z,10.10
2018-08-23T06:02:12.207Z,8.30
2018-08-23T06:04:39.747Z,9.53
2018-08-23T06:07:06.974Z,11.40
2018-08-23T06:09:34.176Z,9.45
2018-08-23T06:12:01.381Z,10.32
2018-08-23T06:14:28.567Z,8.85
2018-08-23T06:16:57.951Z,10.40
2018-08-23T06:19:25.829Z,8.40
2018-08-23T06:21:53.158Z,9.55
2018-08-23T06:24:20.315Z,9.30
2018-08-23T06:26:51.897Z,10.23
2018-08-23T06:29:23.841Z,10.08
2018-08-23T06:31:56.853Z,10.00
2018-08-23T06:34:24.274Z,10.28
2018-08-23T06:36:51.609Z,8.43
2018-08-23T06:39:18.815Z,11.12
2018-08-23T06:41:45.995Z,11.73
2018-08-23T06:44:13.183Z,12.55
2018-08-23T06:46:40.374Z,9.75
2018-08-23T06:49:07.571Z,9.90
2018-08-23T06:51:34.755Z,9.83
2018-08-23T06:54:02.864Z,10.48
2018-08-23T06:56:31.125Z,11.18
2018-08-23T06:58:58.402Z,9.60
2018-08-23T07:01:34.822Z,9.38
2018-08-23T07:04:17.697Z,7.65
2018-08-23T07:06:44.967Z,10.08
2018-08-23T07:09:14.585Z,10.05
2018-08-23T07:11:41.944Z,9.15
2018-08-23T07:14:11.851Z,11.08
2018-08-23T07:16:39.307Z,9.25
2018-08-23T07:19:12.251Z,8.43
2018-08-23T07:21:39.446Z,6.97
2018-08-23T07:24:08.180Z,8.28
2018-08-23T07:26:35.388Z,8.20
2018-08-23T07:29:02.682Z,9.18
2018-08-23T07:31:29.824Z,8.38
2018-08-23T07:33:57.103Z,9.60
2018-08-23T07:36:26.733Z,8.08
2018-08-23T07:38:53.920Z,8.05
2018-08-23T07:41:21.117Z,8.10
2018-08-23T07:43:48.312Z,9.30
2018-08-23T07:46:15.544Z,8.63
2018-08-23T07:48:42.827Z,8.00
2018-08-23T07:51:17.168Z,9.13
2018-08-23T07:53:44.347Z,9.33
2018-08-23T07:56:20.571Z,7.97
2018-08-23T07:58:47.830Z,7.97
2018-08-23T08:01:15.011Z,9.70
2018-08-23T08:03:42.224Z,7.25
2018-08-23T08:06:09.496Z,10.20
2018-08-23T08:08:37.283Z,10.03
2018-08-23T08:11:04.462Z,8.70
2018-08-23T08:13:31.744Z,8.68
2018-08-23T08:16:04.120Z,7.65
2018-08-23T08:18:31.344Z,9.30
2018-08-23T08:21:03.221Z,8.23
2018-08-23T08:23:30.821Z,7.85
2018-08-23T08:25:58.010Z,7.53
2018-08-23T08:28:25.213Z,8.48
2018-08-23T08:30:56.774Z,8.05
2018-08-23T08:33:24.127Z,8.95
2018-08-23T08:35:55.622Z,7.67
2018-08-23T08:38:22.804Z,9.30
2018-08-23T08:40:50.503Z,8.10
2018-08-23T08:43:17.701Z,7.85
2018-08-23T08:45:44.884Z,7.85
2018-08-23T08:48:15.192Z,8.63
2018-08-23T08:50:47.829Z,8.40
2018-08-23T08:53:15.072Z,8.15
2018-08-23T08:55:42.286Z,9.20
2018-08-23T08:58:09.475Z,7.97
2018-08-23T09:00:46.426Z,9.18
2018-08-23T09:03:13.674Z,8.27
2018-08-23T09:05:40.865Z,8.70
2018-08-23T09:08:08.063Z,8.53
2018-08-23T09:10:35.259Z,7.63
2018-08-23T09:13:02.485Z,8.23
2018-08-23T09:15:29.679Z,6.30
2018-08-23T09:17:56.863Z,7.37
2018-08-23T09:20:24.104Z,7.40
2018-08-23T09:22:52.828Z,8.10
2018-08-23T09:25:22.254Z,6.90
2018-08-23T09:27:50.032Z,7.33
2018-08-23T09:30:22.774Z,7.90
2018-08-23T09:32:49.997Z,7.83
2018-08-23T09:35:17.444Z,7.20
2018-08-23T09:37:44.681Z,6.80
2018-08-23T09:40:11.854Z,8.00
2018-08-23T09:42:39.260Z,6.93
2018-08-23T09:45:07.908Z,6.73
2018-08-23T09:47:35.112Z,6.10
2018-08-23T09:50:02.328Z,6.50
2018-08-23T09:52:30.641Z,6.73
2018-08-23T09:54:57.927Z,7.17
2018-08-23T09:57:25.651Z,7.03
2018-08-23T09:59:52.824Z,6.63
2018-08-23T10:02:25.466Z,6.70
2018-08-23T10:04:54.800Z,7.43
2018-08-23T10:07:27.959Z,6.53
2018-08-23T10:10:00.589Z,7.60
2018-08-23T10:12:33.219Z,7.70
2018-08-23T10:15:05.926Z,7.17
2018-08-23T10:17:38.720Z,6.30
2018-08-23T10:20:11.353Z,9.17
2018-08-23T10:22:44.039Z,6.70
2018-08-23T10:25:22.573Z,7.40
2018-08-23T10:27:49.920Z,8.23
2018-08-23T10:30:17.125Z,6.77
2018-08-23T10:32:44.322Z,6.83
2018-08-23T10:35:11.532Z,6.50
2018-08-23T10:37:38.708Z,6.90
2018-08-23T10:40:05.892Z,6.23
2018-08-23T10:42:33.087Z,7.03
2018-08-23T10:45:00.335Z,7.60
2018-08-23T10:47:32.980Z,7.43
2018-08-23T10:50:00.147Z,6.77
2018-08-23T10:52:27.328Z,5.20
2018-08-23T10:54:54.520Z,6.23
2018-08-23T10:57:21.695Z,7.00
2018-08-23T10:59:48.886Z,6.33
2018-08-23T11:02:16.088Z,5.67
2018-08-23T11:04:43.296Z,6.40
2018-08-23T11:07:10.475Z,6.73
2018-08-23T11:09:43.192Z,6.60
2018-08-23T11:12:14.683Z,6.40
2018-08-23T11:14:41.891Z,7.63
2018-08-23T11:17:14.639Z,6.83
2018-08-23T11:19:47.294Z,7.10
2018-08-23T11:22:14.473Z,6.80
2018-08-23T11:24:41.646Z,7.73
2018-08-23T11:27:10.347Z,7.60
2018-08-23T11:29:37.646Z,7.17
2018-08-23T11:32:04.720Z,19.33
2018-08-23T11:34:31.888Z,9.03
2018-08-23T11:36:59.084Z,7.23
2018-08-23T11:39:26.279Z,11.10
2018-08-23T11:41:53.448Z,7.13
2018-08-23T11:44:20.682Z,9.87
2018-08-23T11:46:47.876Z,9.90
2018-08-23T11:49:15.052Z,8.53
2018-08-23T11:51:42.321Z,7.83
2018-08-23T11:54:09.586Z,10.00
2018-08-23T11:56:37.074Z,7.93
2018-08-23T11:59:04.308Z,8.77
2018-08-23T12:01:31.456Z,9.20
2018-08-23T12:03:58.643Z,8.47
2018-08-23T12:06:25.809Z,7.70
2018-08-23T12:08:53.007Z,7.10
2018-08-23T12:11:20.198Z,6.83
2018-08-23T12:13:48.878Z,6.23
2018-08-23T12:16:16.079Z,5.10
2018-08-23T12:18:43.258Z,6.53
2018-08-23T12:21:10.523Z,5.83
2018-08-23T12:23:37.708Z,7.23
2018-08-23T12:26:04.890Z,6.23
2018-08-23T12:28:37.587Z,4.80
2018-08-23T12:31:04.800Z,6.47
2018-08-23T12:33:31.974Z,6.23
2018-08-23T12:35:59.154Z,5.80
2018-08-23T12:38:31.821Z,5.80
2018-08-23T12:41:04.576Z,6.20
2018-08-23T12:43:41.719Z,6.73
2018-08-23T12:46:08.888Z,8.30
2018-08-23T12:48:36.076Z,6.87
2018-08-23T12:51:03.241Z,8.20
2018-08-23T12:53:30.403Z,7.43
2018-08-23T12:55:57.627Z,7.30
2018-08-23T12:58:24.812Z,7.57
2018-08-23T13:00:51.986Z,7.47
2018-08-23T13:03:19.188Z,7.60
2018-08-23T13:05:46.367Z,6.53
2018-08-23T13:08:13.564Z,7.80
2018-08-23T13:10:40.767Z,7.00
2018-08-23T13:13:07.946Z,10.77
2018-08-23T13:15:35.110Z,15.67
2018-08-23T13:18:02.829Z,12.83
2018-08-23T13:20:30.000Z,9.07
2018-08-23T13:22:57.201Z,10.53
2018-08-23T13:25:24.373Z,9.60
2018-08-23T13:27:51.566Z,8.93
2018-08-23T13:30:18.739Z,7.60
2018-08-23T13:32:45.929Z,7.40
2018-08-23T13:35:13.136Z,24.13
2018-08-23T13:37:40.320Z,8.37
2018-08-23T13:40:11.844Z,14.63
2018-08-23T13:42:39.196Z,8.30
2018-08-23T13:45:07.448Z,10.07
2018-08-23T13:47:34.647Z,7.60
2018-08-23T13:50:01.820Z,8.50
2018-08-23T13:52:29.033Z,8.13
2018-08-23T13:54:56.243Z,8.27
2018-08-23T13:57:23.528Z,8.10
2018-08-23T13:59:50.707Z,8.33
2018-08-23T14:02:18.077Z,8.80
2018-08-23T14:04:45.113Z,7.60
2018-08-23T14:07:12.358Z,8.00
2018-08-23T14:09:39.518Z,7.47
2018-08-23T14:12:06.731Z,7.67
2018-08-23T14:14:33.907Z,7.10
2018-08-23T14:17:01.099Z,7.47
2018-08-23T14:19:28.315Z,8.03
2018-08-23T14:21:55.492Z,7.13
2018-08-23T14:24:22.662Z,7.30
2018-08-23T14:26:49.864Z,7.07
2018-08-23T14:29:17.054Z,6.93
2018-08-23T14:31:44.213Z,7.13
2018-08-23T14:34:11.393Z,6.27
2018-08-23T14:36:38.583Z,6.30
2018-08-23T14:39:08.118Z,6.30
2018-08-23T14:41:35.319Z,7.20
2018-08-23T14:44:02.502Z,6.80
2018-08-23T14:46:35.114Z,6.50
2018-08-23T14:49:02.268Z,5.87
2018-08-23T14:51:29.463Z,6.43
2018-08-23T14:53:56.664Z,5.20
2018-08-23T14:56:29.315Z,5.40
2018-08-23T14:58:56.558Z,5.80
2018-08-23T15:01:23.712Z,5.10
2018-08-23T15:03:50.919Z,5.50
2018-08-23T15:06:18.100Z,5.33
2018-08-23T15:08:45.304Z,4.30
2018-08-23T15:11:12.491Z,4.40
2018-08-23T15:13:39.685Z,5.47
2018-08-23T15:16:06.865Z,4.70
2018-08-23T15:18:34.061Z,5.20
2018-08-23T15:21:01.287Z,4.60
2018-08-23T15:23:28.513Z,4.83
2018-08-23T15:25:55.691Z,4.80
2018-08-23T15:28:22.880Z,4.97
2018-08-23T15:30:50.061Z,5.47
2018-08-23T15:33:17.276Z,6.60
2018-08-23T15:35:44.480Z,5.47
2018-08-23T15:38:11.702Z,5.60
2018-08-23T15:40:38.932Z,4.87
2018-08-23T15:43:06.108Z,5.87
2018-08-23T15:45:33.291Z,5.53
2018-08-23T15:48:00.521Z,5.60
2018-08-23T15:50:27.687Z,5.57
2018-08-23T15:52:55.508Z,6.20
2018-08-23T15:55:22.996Z,5.77
2018-08-23T15:57:49.991Z,6.07
2018-08-23T16:00:17.754Z,6.40
2018-08-23T16:02:45.288Z,4.50
2018-08-23T16:05:12.451Z,5.27
2018-08-23T16:07:39.639Z,4.17
2018-08-23T16:10:07.101Z,4.00
2018-08-23T16:12:34.352Z,4.23
2018-08-23T16:15:05.481Z,4.40
2018-08-23T16:17:38.019Z,4.40
2018-08-23T16:20:10.975Z,4.53
2018-08-23T16:22:38.223Z,4.30
2018-08-23T16:25:05.512Z,4.00
2018-08-23T16:27:32.588Z,4.90
2018-08-23T16:29:59.763Z,4.73
2018-08-23T16:32:32.416Z,4.30
2018-08-23T16:34:59.571Z,3.97
2018-08-23T16:37:26.765Z,4.07
2018-08-23T16:39:53.921Z,4.20
2018-08-23T16:42:21.123Z,4.80
2018-08-23T16:44:48.274Z,4.63
2018-08-23T16:47:15.458Z,4.47
2018-08-23T16:49:42.634Z,4.77
2018-08-23T16:52:09.798Z,4.90
2018-08-23T16:54:37.048Z,5.30
2018-08-23T16:57:04.614Z,5.10
2018-08-23T16:59:31.794Z,5.67
2018-08-23T17:01:58.975Z,5.30
2018-08-23T17:04:31.675Z,5.10
2018-08-23T17:06:58.869Z,4.47
2018-08-23T17:09:26.043Z,5.20
2018-08-23T17:11:53.230Z,5.40
2018-08-23T17:14:20.418Z,5.50
2018-08-23T17:16:52.972Z,4.63
2018-08-23T17:19:20.160Z,4.07
2018-08-23T17:21:47.335Z,4.30
2018-08-23T17:24:14.572Z,5.03
2018-08-23T17:26:41.721Z,5.60
2018-08-23T17:29:08.905Z,5.20
2018-08-23T17:31:36.091Z,5.10
2018-08-23T17:34:03.274Z,4.60
2018-08-23T17:36:30.447Z,6.10
2018-08-23T17:38:57.637Z,5.00
2018-08-23T17:41:24.835Z,5.50
2018-08-23T17:43:52.014Z,5.00
2018-08-23T17:46:19.208Z,5.40
2018-08-23T17:48:46.404Z,5.60
2018-08-23T17:51:13.583Z,5.80
2018-08-23T17:53:40.776Z,6.17
2018-08-23T17:56:07.980Z,5.73
2018-08-23T17:58:35.175Z,6.07
2018-08-23T18:01:02.368Z,6.13
2018-08-23T18:03:29.558Z,6.30
2018-08-23T18:05:56.746Z,6.37
2018-08-23T18:08:23.945Z,6.47
2018-08-23T18:10:51.118Z,6.57
2018-08-23T18:13:18.393Z,5.73
2018-08-23T18:15:51.153Z,5.47
2018-08-23T18:18:18.321Z,5.30
2018-08-23T18:20:45.516Z,5.57
2018-08-23T18:23:12.703Z,5.33
2018-08-23T18:25:39.972Z,6.67
2018-08-23T18:28:07.075Z,6.00
2018-08-23T18:30:34.317Z,6.97
2018-08-23T18:33:01.595Z,6.07
2018-08-23T18:35:28.772Z,4.53
2018-08-23T18:37:56.200Z,6.30
2018-08-23T18:40:23.887Z,6.27
2018-08-23T18:42:51.086Z,6.27
2018-08-23T18:45:18.284Z,5.07
2018-08-23T18:47:45.499Z,5.77
2018-08-23T18:50:12.666Z,6.87
2018-08-23T18:52:39.845Z,5.67
2018-08-23T18:55:07.020Z,6.30
2018-08-23T18:57:34.255Z,6.13
2018-08-23T19:00:01.573Z,6.70
2018-08-23T19:02:28.649Z,6.57
2018-08-23T19:04:55.823Z,7.00
2018-08-23T19:07:28.440Z,6.53
2018-08-23T19:09:58.561Z,6.77
2018-08-23T19:12:25.730Z,6.50
2018-08-23T19:14:52.902Z,6.58
2018-08-23T19:17:25.465Z,7.15
2018-08-23T19:19:52.642Z,5.72
2018-08-23T19:22:19.822Z,6.67
2018-08-23T19:24:47.012Z,7.00
2018-08-23T19:27:14.244Z,5.55
2018-08-23T19:29:41.456Z,6.80
2018-08-23T19:32:08.639Z,6.65
2018-08-23T19:34:35.828Z,7.00
2018-08-23T19:37:03.039Z,6.50
2018-08-23T19:39:30.207Z,6.70
2018-08-23T19:41:57.369Z,6.10
2018-08-23T19:44:24.558Z,5.65
2018-08-23T19:46:57.256Z,6.83
2018-08-23T19:49:30.071Z,6.75
2018-08-23T19:51:57.297Z,6.22
2018-08-23T19:54:24.487Z,6.50
2018-08-23T19:56:51.695Z,6.33
2018-08-23T19:59:18.862Z,5.87
2018-08-23T20:01:46.031Z,6.10
2018-08-23T20:04:13.219Z,5.67
2018-08-23T20:06:40.401Z,5.53
2018-08-23T20:09:07.751Z,5.08
2018-08-23T20:11:34.914Z,4.95
2018-08-23T20:14:02.087Z,6.15
2018-08-23T20:16:29.279Z,6.10
2018-08-23T20:18:56.465Z,5.75
2018-08-23T20:21:23.668Z,5.60
2018-08-23T20:23:50.863Z,4.67
2018-08-23T20:26:18.039Z,5.28
2018-08-23T20:28:45.227Z,4.72
2018-08-23T20:31:12.433Z,5.67
2018-08-23T20:33:39.614Z,5.08
2018-08-23T20:36:06.845Z,5.20
2018-08-23T20:38:34.070Z,5.42
2018-08-23T20:41:01.271Z,5.23
2018-08-23T20:43:28.467Z,5.67
2018-08-23T20:45:55.648Z,5.55
2018-08-23T20:48:22.849Z,4.40
2018-08-23T20:50:50.034Z,4.95
2018-08-23T20:53:17.221Z,4.97
2018-08-23T20:55:44.444Z,4.10
2018-08-23T20:58:11.665Z,5.78
2018-08-23T21:00:38.818Z,4.75
2018-08-23T21:03:06.027Z,4.85
2018-08-23T21:05:33.220Z,5.17
2018-08-23T21:08:00.434Z,4.83
2018-08-23T21:10:27.617Z,4.90
2018-08-23T21:12:54.800Z,4.90
2018-08-23T21:15:21.977Z,4.53
2018-08-23T21:17:49.206Z,5.05
2018-08-23T21:20:16.384Z,4.50
2018-08-23T21:22:43.568Z,4.75
2018-08-23T21:25:10.947Z,4.90
2018-08-23T21:27:38.145Z,5.15
2018-08-23T21:30:05.750Z,4.50
2018-08-23T21:32:32.960Z,4.95
2018-08-23T21:35:00.143Z,5.35
2018-08-23T21:37:27.352Z,5.45
2018-08-23T21:39:54.559Z,6.78
2018-08-23T21:42:21.809Z,7.50
2018-08-23T21:44:48.964Z,6.40
2018-08-23T21:47:16.139Z,5.30
2018-08-23T21:49:43.426Z,4.47
2018-08-23T21:52:10.613Z,5.03
2018-08-23T21:54:37.794Z,5.00
2018-08-23T21:57:05.121Z,5.10
2018-08-23T21:59:32.302Z,5.62
2018-08-23T22:02:05.055Z,4.58
2018-08-23T22:04:35.998Z,6.30
2018-08-23T22:07:03.183Z,6.37
2018-08-23T22:09:30.467Z,6.08
2018-08-23T22:11:57.639Z,6.50
2018-08-23T22:14:24.848Z,6.30
2018-08-23T22:16:52.032Z,7.10
2018-08-23T22:19:19.224Z,6.50
2018-08-23T22:21:46.419Z,7.62
2018-08-23T22:24:13.593Z,6.05
2018-08-23T22:26:40.868Z,5.90
2018-08-23T22:29:07.972Z,6.95
2018-08-23T22:31:35.144Z,6.15
2018-08-23T22:34:02.339Z,5.87
2018-08-23T22:36:29.528Z,6.30
2018-08-23T22:38:56.706Z,6.20
2018-08-23T22:41:23.903Z,6.00
2018-08-23T22:43:51.083Z,5.85
2018-08-23T22:46:18.268Z,5.17
2018-08-23T22:48:45.482Z,5.95
2018-08-23T22:51:12.646Z,5.62
2018-08-23T22:53:39.851Z,5.78
2018-08-23T22:56:07.181Z,6.25
2018-08-23T22:58:34.383Z,5.72
2018-08-23T23:01:01.558Z,5.67
2018-08-23T23:03:34.232Z,6.33
2018-08-23T23:06:01.436Z,6.10
2018-08-23T23:08:28.677Z,5.78
2018-08-23T23:10:55.855Z,5.85
2018-08-23T23:13:23.055Z,6.00
2018-08-23T23:15:50.222Z,6.08
2018-08-23T23:18:17.403Z,5.22
2018-08-23T23:20:44.628Z,6.40
2018-08-23T23:23:11.881Z,5.85
2018-08-23T23:25:39.064Z,6.22
2018-08-23T23:28:06.243Z,6.17
2018-08-23T23:30:33.422Z,5.85
2018-08-23T23:33:00.618Z,6.45
2018-08-23T23:35:27.796Z,5.55
2018-08-23T23:37:54.968Z,5.55
2018-08-23T23:40:22.193Z,6.40
2018-08-23T23:42:49.385Z,6.87
2018-08-23T23:45:16.576Z,5.75
2018-08-23T23:47:43.752Z,6.83
2018-08-23T23:50:10.931Z,6.17
2018-08-23T23:52:38.136Z,6.12
2018-08-23T23:55:05.308Z,6.12
2018-08-23T23:57:32.477Z,5.67
2018-08-23T23:59:59.659Z,5.15
